Time;durP1;ratioP1;P1;durP2;ratioP2;P2;SDS_P1;SDS_P2;PMS_P1;PMS_P2;Temp;Humidity;BMP_temperature;BMP_pressure;BME280_temperature;BME280_humidity;BME280_pressure;Samples;Min_cycle;Max_cycle;Signal;HPM_P1;HPM_P2
2023/04/26 00:01:56;;;;;;;9.93;3.40;;;10.50;99.90;;;;;;7386672;19;20143;-79
2023/04/26 00:04:23;;;;;;;5.67;3.37;;;10.40;99.90;;;;;;7386186;19;20158;-79
2023/04/26 00:06:49;;;;;;;4.67;3.50;;;10.40;99.90;;;;;;7386407;19;20163;-80
2023/04/26 00:09:17;;;;;;;4.30;3.07;;;10.40;99.90;;;;;;7388336;19;20146;-80
2023/04/26 00:11:54;;;;;;;6.53;2.67;;;10.40;99.90;;;;;;7383899;19;20138;-78
2023/04/26 00:14:20;;;;;;;6.00;2.67;;;10.40;99.90;;;;;;7387779;19;20157;-80
2023/04/26 00:16:45;;;;;;;4.30;3.30;;;10.30;99.90;;;;;;7386765;19;20146;-79
2023/04/26 00:19:12;;;;;;;5.57;3.03;;;10.30;99.90;;;;;;7385605;19;20142;-79
2023/04/26 00:21:38;;;;;;;5.73;3.50;;;10.40;99.90;;;;;;7388028;19;20218;-79
2023/04/26 00:24:05;;;;;;;5.10;3.10;;;10.50;99.90;;;;;;7388464;19;20141;-80
2023/04/26 00:26:30;;;;;;;7.23;3.23;;;10.50;99.90;;;;;;7388127;19;20138;-81
2023/04/26 00:28:56;;;;;;;6.17;3.27;;;10.40;99.90;;;;;;7385913;19;20496;-80
2023/04/26 00:31:22;;;;;;;5.03;3.10;;;10.40;99.90;;;;;;7386072;19;20134;-79
2023/04/26 00:33:48;;;;;;;4.27;3.07;;;10.40;99.90;;;;;;7386342;19;20633;-80
2023/04/26 00:36:18;;;;;;;3.60;2.77;;;10.50;99.90;;;;;;7386071;19;20213;-80
2023/04/26 00:38:47;;;;;;;5.27;2.90;;;10.50;99.90;;;;;;7388036;19;20137;-80
2023/04/26 00:41:13;;;;;;;4.90;2.87;;;10.50;99.90;;;;;;7386536;19;20153;-80
2023/04/26 00:43:39;;;;;;;6.40;2.70;;;10.50;99.90;;;;;;7385560;19;20642;-80
2023/04/26 00:46:12;;;;;;;5.47;3.07;;;10.50;99.90;;;;;;7385770;19;20133;-80
2023/04/26 00:48:37;;;;;;;5.10;2.70;;;10.50;99.90;;;;;;7385724;19;20130;-79
2023/04/26 00:51:04;;;;;;;4.80;2.93;;;10.50;99.90;;;;;;7386400;19;20226;-79
2023/04/26 00:53:33;;;;;;;3.87;2.70;;;10.40;99.90;;;;;;7381965;19;20153;-79
2023/04/26 00:55:58;;;;;;;5.83;3.37;;;10.40;99.90;;;;;;7381638;19;20138;-80
2023/04/26 00:58:24;;;;;;;4.20;2.90;;;10.40;99.90;;;;;;7385036;19;20179;-79
2023/04/26 01:00:50;;;;;;;4.03;2.90;;;10.40;99.90;;;;;;7376323;19;20134;-72
2023/04/26 01:03:16;;;;;;;4.87;2.80;;;10.40;99.90;;;;;;7385582;19;20615;-73
2023/04/26 01:05:43;;;;;;;3.80;2.57;;;10.20;99.90;;;;;;7384549;19;20812;-73
2023/04/26 01:08:09;;;;;;;7.20;2.73;;;10.30;99.90;;;;;;7383252;19;20166;-74
2023/04/26 01:10:36;;;;;;;6.50;3.00;;;10.40;99.90;;;;;;7383715;19;20205;-73
2023/04/26 01:13:02;;;;;;;5.30;2.63;;;10.30;99.90;;;;;;7382718;19;20127;-73
2023/04/26 01:15:29;;;;;;;4.13;2.83;;;10.30;99.90;;;;;;7383750;19;20598;-73
2023/04/26 01:17:58;;;;;;;6.37;2.87;;;10.40;99.90;;;;;;7384279;19;20508;-73
2023/04/26 01:20:25;;;;;;;5.73;2.50;;;10.40;99.90;;;;;;7382895;19;20139;-72
2023/04/26 01:22:51;;;;;;;4.57;2.80;;;10.40;99.90;;;;;;7383968;19;20617;-73
2023/04/26 01:25:20;;;;;;;7.20;3.33;;;10.30;99.90;;;;;;7384608;19;20202;-73
2023/04/26 01:27:45;;;;;;;4.60;2.90;;;10.40;99.90;;;;;;7383436;19;20165;-72
2023/04/26 01:30:11;;;;;;;5.93;2.40;;;10.30;99.90;;;;;;7385141;19;20591;-72
2023/04/26 01:32:37;;;;;;;4.77;3.40;;;10.30;99.90;;;;;;7387605;19;20621;-73
2023/04/26 01:35:04;;;;;;;4.67;2.93;;;10.30;99.90;;;;;;7390127;19;20126;-73
2023/04/26 01:37:30;;;;;;;6.40;2.80;;;10.10;99.90;;;;;;7387520;19;20165;-72
2023/04/26 01:39:56;;;;;;;6.63;2.93;;;10.10;99.90;;;;;;7390836;19;20135;-73
2023/04/26 01:42:21;;;;;;;5.07;2.57;;;10.10;99.90;;;;;;7382954;19;20638;-72
2023/04/26 01:44:47;;;;;;;4.53;2.70;;;10.00;99.90;;;;;;7390028;19;20135;-73
2023/04/26 01:47:13;;;;;;;4.00;2.70;;;10.00;99.90;;;;;;7389321;19;20130;-72
2023/04/26 01:49:38;;;;;;;5.40;3.30;;;10.00;99.90;;;;;;7388560;19;20518;-73
2023/04/26 01:52:07;;;;;;;5.33;2.80;;;10.00;99.90;;;;;;7387697;19;20198;-73
2023/04/26 01:54:33;;;;;;;6.70;2.87;;;10.00;99.90;;;;;;7387880;19;20146;-72
2023/04/26 01:56:59;;;;;;;5.00;3.20;;;10.10;99.90;;;;;;7387104;19;20131;-73
2023/04/26 01:59:26;;;;;;;4.90;2.87;;;10.10;99.90;;;;;;7388482;19;20245;-72
2023/04/26 02:01:52;;;;;;;5.80;3.10;;;10.00;99.90;;;;;;7388385;19;20173;-72
2023/04/26 02:04:18;;;;;;;5.20;2.63;;;10.00;99.90;;;;;;7387693;19;20222;-72
2023/04/26 02:06:44;;;;;;;6.73;2.70;;;10.10;99.90;;;;;;7389709;19;20139;-72
2023/04/26 02:09:10;;;;;;;6.13;2.93;;;10.10;99.90;;;;;;7388104;19;20147;-73
2023/04/26 02:11:35;;;;;;;3.80;2.67;;;10.10;99.90;;;;;;7390557;19;20138;-73
2023/04/26 02:14:01;;;;;;;4.97;2.97;;;9.90;99.90;;;;;;7386403;19;20571;-73
2023/04/26 02:16:27;;;;;;;5.87;3.27;;;9.90;99.90;;;;;;7390300;19;20130;-73
2023/04/26 02:18:53;;;;;;;3.53;2.60;;;9.90;99.90;;;;;;7388170;19;20153;-73
2023/04/26 02:21:21;;;;;;;6.40;2.80;;;9.90;99.90;;;;;;7389427;19;20142;-73
2023/04/26 02:23:46;;;;;;;4.67;2.90;;;9.90;99.90;;;;;;7388606;19;20146;-73
2023/04/26 02:26:13;;;;;;;5.10;2.83;;;10.00;99.90;;;;;;7391409;19;20179;-74
2023/04/26 02:28:38;;;;;;;4.77;2.80;;;9.80;99.90;;;;;;7390091;19;20488;-72
2023/04/26 02:31:05;;;;;;;6.30;3.10;;;9.60;99.90;;;;;;7388788;19;20146;-73
2023/04/26 02:33:31;;;;;;;5.23;3.03;;;9.80;99.90;;;;;;7387121;19;20166;-73
2023/04/26 02:35:57;;;;;;;6.13;3.20;;;9.90;99.90;;;;;;7388883;19;20158;-72
2023/04/26 02:38:25;;;;;;;6.50;3.70;;;9.80;99.90;;;;;;7387169;19;20475;-72
2023/04/26 02:40:58;;;;;;;7.70;3.47;;;9.80;99.90;;;;;;7387540;19;20150;-72
2023/04/26 02:43:24;;;;;;;5.23;3.60;;;9.80;99.90;;;;;;7387813;19;20138;-71
2023/04/26 02:45:50;;;;;;;9.30;4.20;;;9.80;99.90;;;;;;7390017;19;20135;-73
2023/04/26 02:48:16;;;;;;;11.23;3.20;;;9.60;99.90;;;;;;7387594;19;20202;-72
2023/04/26 02:50:41;;;;;;;6.67;3.27;;;9.50;99.90;;;;;;7388347;19;20155;-72
2023/04/26 02:53:07;;;;;;;6.37;3.37;;;9.10;99.90;;;;;;7385635;19;20218;-73
2023/04/26 02:55:33;;;;;;;4.33;3.63;;;9.10;99.90;;;;;;7389563;19;20131;-73
2023/04/26 02:57:58;;;;;;;5.53;3.70;;;9.40;99.90;;;;;;7387785;19;20222;-72
2023/04/26 03:00:25;;;;;;;5.27;3.83;;;9.40;99.90;;;;;;7388664;19;20130;-73
2023/04/26 03:02:51;;;;;;;5.37;3.90;;;9.60;99.90;;;;;;7390399;19;20138;-72
2023/04/26 03:05:17;;;;;;;7.63;4.43;;;9.70;99.90;;;;;;7387492;19;20632;-72
2023/04/26 03:07:43;;;;;;;8.70;4.80;;;9.70;99.90;;;;;;7387543;19;20138;-73
2023/04/26 03:10:09;;;;;;;9.10;4.67;;;9.70;99.90;;;;;;7387409;19;20127;-72
2023/04/26 03:12:34;;;;;;;6.87;4.40;;;9.70;99.90;;;;;;7385245;19;20167;-72
2023/04/26 03:15:02;;;;;;;8.13;4.70;;;9.40;99.90;;;;;;7388124;19;20131;-72
2023/04/26 03:17:28;;;;;;;6.63;5.13;;;9.40;99.90;;;;;;7389385;19;20133;-72
2023/04/26 03:19:54;;;;;;;8.20;6.00;;;9.60;99.90;;;;;;7386777;19;20147;-72
2023/04/26 03:22:21;;;;;;;7.93;5.37;;;9.80;99.90;;;;;;7389121;19;20132;-72
2023/04/26 03:24:48;;;;;;;9.87;5.47;;;9.50;99.90;;;;;;7382743;19;20148;-73
2023/04/26 03:27:13;;;;;;;7.90;5.27;;;9.60;99.90;;;;;;7388068;19;20617;-74
2023/04/26 03:29:39;;;;;;;7.70;5.43;;;9.60;99.90;;;;;;7388641;19;20165;-73
2023/04/26 03:32:06;;;;;;;9.80;5.73;;;9.70;99.90;;;;;;7386851;19;20137;-74
2023/04/26 03:34:31;;;;;;;9.30;5.97;;;9.60;99.90;;;;;;7385211;19;20143;-73
2023/04/26 03:36:57;;;;;;;13.77;6.37;;;9.50;99.90;;;;;;7386815;19;20153;-73
2023/04/26 03:42:41;;;;;;;10.57;6.47;;;9.60;99.90;;;;;;7381707;19;20242;-73
2023/04/26 03:45:07;;;;;;;14.30;7.07;;;9.60;99.90;;;;;;7385831;19;20143;-73
2023/04/26 03:47:33;;;;;;;12.10;6.33;;;9.60;99.90;;;;;;7387536;19;20142;-73
2023/04/26 03:50:02;;;;;;;9.40;6.50;;;9.60;99.90;;;;;;7385356;19;20941;-72
2023/04/26 03:55:57;;;;;;;10.07;6.17;;;9.20;99.90;;;;;;7384254;19;20205;-72
2023/04/26 03:58:26;;;;;;;11.57;6.80;;;9.00;99.90;;;;;;7387746;19;20143;-71
2023/04/26 04:00:56;;;;;;;12.90;6.07;;;9.20;99.90;;;;;;7387201;19;20238;-72
2023/04/26 04:03:21;;;;;;;8.73;6.50;;;8.70;99.90;;;;;;7387111;19;20252;-72
2023/04/26 04:05:47;;;;;;;9.97;6.43;;;8.30;99.90;;;;;;7389008;19;20701;-72
2023/04/26 04:08:13;;;;;;;9.60;6.13;;;8.30;99.90;;;;;;7387458;19;20139;-71
2023/04/26 04:10:38;;;;;;;10.13;6.90;;;8.20;99.90;;;;;;7385640;19;20150;-72
2023/04/26 04:13:04;;;;;;;10.03;6.67;;;8.60;99.90;;;;;;7383794;19;20150;-72
2023/04/26 04:15:30;;;;;;;11.33;6.27;;;8.60;99.90;;;;;;7388785;19;20163;-73
2023/04/26 04:17:56;;;;;;;10.17;6.20;;;8.50;99.90;;;;;;7389202;19;20134;-71
2023/04/26 04:20:21;;;;;;;12.23;6.50;;;8.50;99.90;;;;;;7387659;19;20156;-73
2023/04/26 04:22:47;;;;;;;10.60;6.20;;;8.80;99.90;;;;;;7385396;19;20180;-72
2023/04/26 04:25:13;;;;;;;10.93;6.30;;;8.90;99.90;;;;;;7386980;19;20139;-72
2023/04/26 04:27:44;;;;;;;10.47;6.67;;;9.10;99.90;;;;;;7385692;19;20150;-72
2023/04/26 04:30:11;;;;;;;10.60;6.20;;;9.30;99.90;;;;;;7384410;19;20229;-73
2023/04/26 04:32:38;;;;;;;8.70;6.17;;;9.30;99.90;;;;;;7383019;19;20139;-73
2023/04/26 04:35:04;;;;;;;9.43;6.47;;;9.10;99.90;;;;;;7384659;19;20176;-72
2023/04/26 04:37:33;;;;;;;10.10;5.93;;;9.10;99.90;;;;;;7385876;19;20138;-72
2023/04/26 04:39:59;;;;;;;10.77;6.20;;;9.00;99.90;;;;;;7383826;19;20158;-72
2023/04/26 04:42:28;;;;;;;9.73;6.43;;;9.10;99.90;;;;;;7383877;19;20158;-72
2023/04/26 04:44:54;;;;;;;11.20;6.40;;;8.90;99.90;;;;;;7385418;19;20613;-72
2023/04/26 04:47:20;;;;;;;13.97;6.30;;;8.80;99.90;;;;;;7385102;19;20613;-72
2023/04/26 04:49:46;;;;;;;12.83;6.27;;;9.00;99.90;;;;;;7385290;19;20147;-72
2023/04/26 04:52:12;;;;;;;9.93;6.70;;;9.20;99.90;;;;;;7383683;19;20139;-72
2023/04/26 04:54:38;;;;;;;10.63;7.13;;;9.30;99.90;;;;;;7385239;19;20169;-72
2023/04/26 04:57:04;;;;;;;9.63;6.53;;;9.20;99.90;;;;;;7385205;19;20135;-73
2023/04/26 04:59:30;;;;;;;11.17;5.97;;;9.40;99.90;;;;;;7385556;19;20206;-73
2023/04/26 05:01:56;;;;;;;10.87;6.43;;;9.40;99.90;;;;;;7385169;19;20155;-72
2023/04/26 05:04:21;;;;;;;11.37;7.27;;;9.40;99.90;;;;;;7385514;19;20139;-73
2023/04/26 05:06:47;;;;;;;10.83;6.60;;;9.40;99.90;;;;;;7392458;19;20471;-73
2023/04/26 05:09:13;;;;;;;14.33;6.30;;;9.40;99.90;;;;;;7393487;19;20201;-72
2023/04/26 05:11:39;;;;;;;10.27;6.20;;;9.40;99.90;;;;;;7388908;19;20591;-72
2023/04/26 05:14:05;;;;;;;8.57;6.20;;;9.40;99.90;;;;;;7390464;19;20223;-72
2023/04/26 05:16:30;;;;;;;12.10;6.87;;;9.50;99.90;;;;;;7389786;19;20139;-72
2023/04/26 05:18:56;;;;;;;12.73;6.67;;;9.50;99.90;;;;;;7393086;19;20566;-72
2023/04/26 05:21:22;;;;;;;22.43;14.90;;;9.50;99.90;;;;;;7388337;19;20139;-72
2023/04/26 05:23:48;;;;;;;14.43;9.77;;;9.50;99.90;;;;;;7391460;19;20261;-71
2023/04/26 05:26:15;;;;;;;13.13;7.37;;;9.60;99.90;;;;;;7385958;19;20135;-72
2023/04/26 05:28:41;;;;;;;14.40;6.63;;;9.60;99.90;;;;;;7391737;19;20487;-72
2023/04/26 05:31:09;;;;;;;12.37;6.87;;;9.60;99.90;;;;;;7389498;19;20142;-71
2023/04/26 05:33:34;;;;;;;9.67;6.10;;;9.60;99.90;;;;;;7387881;19;20146;-71
2023/04/26 05:36:01;;;;;;;12.30;6.97;;;9.80;99.90;;;;;;7389072;19;20518;-72
2023/04/26 05:38:27;;;;;;;11.13;6.60;;;9.80;99.90;;;;;;7389880;19;20579;-72
2023/04/26 05:40:53;;;;;;;12.43;6.93;;;9.80;99.90;;;;;;7388119;19;20150;-71
2023/04/26 05:43:19;;;;;;;9.73;6.53;;;9.70;99.90;;;;;;7387179;19;20504;-71
2023/04/26 05:45:55;;;;;;;12.00;7.43;;;9.70;99.90;;;;;;7389317;19;20698;-72
2023/04/26 05:48:23;;;;;;;10.97;7.03;;;9.80;99.90;;;;;;7389715;19;20151;-72
2023/04/26 05:50:50;;;;;;;13.57;7.07;;;9.70;99.90;;;;;;7391238;19;20491;-70
2023/04/26 05:53:16;;;;;;;14.73;7.23;;;9.70;99.90;;;;;;7397490;19;20214;-71
2023/04/26 05:55:42;;;;;;;10.80;6.47;;;9.60;99.90;;;;;;7390567;19;20143;-72
2023/04/26 05:58:08;;;;;;;10.90;7.63;;;9.60;99.90;;;;;;7384093;19;20156;-73
2023/04/26 06:00:35;;;;;;;10.63;7.47;;;9.70;99.90;;;;;;7390677;19;20213;-73
2023/04/26 06:03:00;;;;;;;13.83;7.17;;;9.50;99.90;;;;;;7387840;19;20150;-72
2023/04/26 06:05:26;;;;;;;9.73;6.53;;;9.70;99.90;;;;;;7391399;19;20146;-72
2023/04/26 06:07:52;;;;;;;11.53;6.63;;;9.80;99.90;;;;;;7389261;19;20138;-72
2023/04/26 06:10:19;;;;;;;9.37;6.43;;;9.80;99.90;;;;;;7391240;19;20146;-71
2023/04/26 06:12:45;;;;;;;8.53;6.13;;;9.50;99.90;;;;;;7389212;19;20145;-71
2023/04/26 06:15:13;;;;;;;9.07;5.83;;;9.10;99.90;;;;;;7389544;19;20154;-72
2023/04/26 06:17:40;;;;;;;10.77;6.37;;;9.20;99.90;;;;;;7389622;19;20156;-71
2023/04/26 06:20:08;;;;;;;10.37;6.33;;;9.60;99.90;;;;;;7387857;19;20131;-70
2023/04/26 06:22:35;;;;;;;12.57;7.13;;;9.70;99.90;;;;;;7388020;19;20599;-71
2023/04/26 06:25:00;;;;;;;10.37;6.67;;;9.80;99.90;;;;;;7388255;19;20139;-70
2023/04/26 06:27:26;;;;;;;9.03;6.50;;;9.80;99.90;;;;;;7388602;19;20127;-72
2023/04/26 06:29:52;;;;;;;11.77;6.90;;;9.90;99.90;;;;;;7390594;19;20162;-70
2023/04/26 06:32:18;;;;;;;9.90;6.70;;;10.00;99.90;;;;;;7388475;19;20254;-72
2023/04/26 06:34:44;;;;;;;9.93;6.60;;;10.20;99.90;;;;;;7390743;19;20123;-72
2023/04/26 06:37:10;;;;;;;7.57;5.80;;;10.50;99.90;;;;;;7388396;19;20134;-71
2023/04/26 06:39:37;;;;;;;9.90;6.37;;;10.70;99.90;;;;;;7390702;19;20131;-71
2023/04/26 06:42:10;;;;;;;10.80;6.03;;;11.20;99.90;;;;;;7386211;19;20197;-70
2023/04/26 06:44:36;;;;;;;9.13;5.27;;;11.70;99.90;;;;;;7389597;19;20486;-74
2023/04/26 06:47:01;;;;;;;11.43;7.03;;;12.50;99.90;;;;;;7389809;19;20138;-71
2023/04/26 06:49:27;;;;;;;9.70;5.47;;;13.60;99.90;;;;;;7389504;19;20149;-72
2023/04/26 06:51:53;;;;;;;8.87;5.23;;;14.90;99.90;;;;;;7387055;19;20150;-80
2023/04/26 06:54:19;;;;;;;8.10;5.60;;;15.90;99.90;;;;;;7388970;19;20163;-79
2023/04/26 06:56:45;;;;;;;9.93;5.20;;;16.60;99.90;;;;;;7391463;19;20157;-79
2023/04/26 06:59:11;;;;;;;7.37;5.00;;;16.60;99.90;;;;;;7391410;19;20126;-79
2023/04/26 07:01:37;;;;;;;8.57;5.07;;;16.50;99.90;;;;;;7390860;19;20150;-78
2023/04/26 07:04:09;;;;;;;9.93;4.27;;;16.20;99.90;;;;;;7391089;19;20622;-78
2023/04/26 07:06:36;;;;;;;4.50;3.60;;;15.80;99.90;;;;;;7392076;19;20133;-78
2023/04/26 07:09:02;;;;;;;7.37;3.43;;;15.50;99.90;;;;;;7392304;19;20154;-77
2023/04/26 07:11:28;;;;;;;6.97;3.00;;;15.20;99.90;;;;;;7389492;19;20135;-79
2023/04/26 07:13:54;;;;;;;3.67;2.70;;;15.50;99.90;;;;;;7389528;19;20598;-79
2023/04/26 07:16:20;;;;;;;4.88;3.08;;;16.10;99.90;;;;;;7387995;19;20511;-78
2023/04/26 07:18:48;;;;;;;7.20;3.17;;;16.60;99.90;;;;;;7390207;19;20143;-77
2023/04/26 07:21:15;;;;;;;5.22;2.75;;;16.70;99.70;;;;;;7391202;19;20138;-78
2023/04/26 07:23:40;;;;;;;4.22;2.22;;;16.80;98.30;;;;;;7388124;19;20183;-78
2023/04/26 07:26:06;;;;;;;5.20;2.50;;;17.10;97.90;;;;;;7389245;19;20131;-77
2023/04/26 07:28:32;;;;;;;6.10;2.70;;;17.30;97.40;;;;;;7387108;19;20230;-78
2023/04/26 07:31:00;;;;;;;3.53;2.60;;;17.50;97.00;;;;;;7387634;19;20581;-77
2023/04/26 07:33:26;;;;;;;5.97;3.22;;;17.60;96.40;;;;;;7383978;19;20721;-76
2023/04/26 07:35:56;;;;;;;5.80;3.55;;;17.20;96.60;;;;;;7387716;19;20215;-77
2023/04/26 07:38:22;;;;;;;9.00;5.07;;;17.40;97.40;;;;;;7388034;19;20479;-78
2023/04/26 07:40:49;;;;;;;6.43;3.72;;;17.30;97.90;;;;;;7388724;19;20150;-79
2023/04/26 07:43:15;;;;;;;6.00;3.63;;;16.80;96.90;;;;;;7386306;19;20149;-79
2023/04/26 07:45:41;;;;;;;7.53;3.25;;;16.90;97.10;;;;;;7385837;19;20142;-78
2023/04/26 07:48:07;;;;;;;6.35;3.20;;;16.80;96.40;;;;;;7389850;19;20131;-79
2023/04/26 07:50:33;;;;;;;4.63;2.88;;;16.70;97.20;;;;;;7388917;19;20416;-78
2023/04/26 07:52:59;;;;;;;7.13;3.03;;;16.10;97.00;;;;;;7384719;19;20134;-79
2023/04/26 07:55:26;;;;;;;5.35;3.20;;;16.20;97.70;;;;;;7388432;19;20199;-78
2023/04/26 07:57:51;;;;;;;6.68;3.10;;;15.70;98.50;;;;;;7388952;19;20544;-78
2023/04/26 08:00:18;;;;;;;5.88;3.55;;;15.90;99.90;;;;;;7377222;19;20281;-79
2023/04/26 08:02:47;;;;;;;9.95;5.60;;;16.00;98.00;;;;;;7377486;19;20587;-79
2023/04/26 08:05:14;;;;;;;6.25;3.40;;;16.00;97.40;;;;;;7387730;19;20142;-79
2023/04/26 08:07:41;;;;;;;5.88;3.35;;;16.90;96.80;;;;;;7387885;19;20205;-78
2023/04/26 08:10:07;;;;;;;5.75;3.42;;;16.40;96.40;;;;;;7387027;19;20431;-81
2023/04/26 08:12:34;;;;;;;4.65;2.88;;;15.90;97.70;;;;;;7388851;19;20567;-80
2023/04/26 08:15:01;;;;;;;6.57;3.30;;;15.70;97.40;;;;;;7388361;19;20198;-79
2023/04/26 08:17:26;;;;;;;4.80;3.25;;;15.00;98.90;;;;;;7389191;19;20458;-79
2023/04/26 08:19:52;;;;;;;6.53;3.53;;;15.30;98.60;;;;;;7387568;19;20130;-79
2023/04/26 08:22:18;;;;;;;4.93;3.15;;;15.40;99.70;;;;;;7387296;19;20558;-79
2023/04/26 08:24:50;;;;;;;7.03;4.20;;;16.00;98.80;;;;;;7387604;19;20130;-80
2023/04/26 08:27:16;;;;;;;5.90;3.38;;;16.10;97.60;;;;;;7384194;19;20138;-78
2023/04/26 08:29:44;;;;;;;8.30;3.20;;;15.80;97.80;;;;;;7388426;19;20135;-78
2023/04/26 08:32:11;;;;;;;7.28;3.03;;;15.30;98.40;;;;;;7384226;19;20134;-79
2023/04/26 08:34:37;;;;;;;4.68;2.90;;;14.80;99.10;;;;;;7379237;19;20154;-80
2023/04/26 08:37:05;;;;;;;6.45;3.22;;;14.40;99.90;;;;;;7386564;19;20138;-80
2023/04/26 08:39:32;;;;;;;7.05;3.42;;;14.20;99.90;;;;;;7389233;19;20610;-81
2023/04/26 08:42:07;;;;;;;7.70;3.20;;;13.70;99.90;;;;;;7393519;19;20184;-80
2023/04/26 08:44:36;;;;;;;5.88;3.28;;;13.60;99.90;;;;;;7397999;19;20146;-81
2023/04/26 08:47:08;;;;;;;6.30;3.90;;;13.60;99.90;;;;;;7387497;19;20921;-79
2023/04/26 08:49:47;;;;;;;9.40;3.50;;;13.30;99.90;;;;;;7394382;19;20210;-81
2023/04/26 08:52:15;;;;;;;6.70;3.67;;;12.90;99.90;;;;;;7395574;19;20138;-79
2023/04/26 08:54:42;;;;;;;6.43;3.50;;;12.70;99.90;;;;;;7395569;19;20504;-80
2023/04/26 08:57:08;;;;;;;6.85;3.05;;;12.80;99.90;;;;;;7392844;19;20141;-81
2023/04/26 08:59:37;;;;;;;5.80;3.40;;;12.80;99.90;;;;;;7385743;19;20151;-79
2023/04/26 09:02:06;;;;;;;6.77;3.80;;;12.80;99.90;;;;;;7387228;19;20135;-80
2023/04/26 09:04:37;;;;;;;10.93;3.77;;;13.00;99.90;;;;;;7390911;19;20165;-81
2023/04/26 09:07:03;;;;;;;4.90;3.17;;;13.10;99.90;;;;;;7389134;19;20158;-78
2023/04/26 09:09:36;;;;;;;5.70;2.90;;;13.10;99.90;;;;;;7393633;19;20142;-78
2023/04/26 09:12:03;;;;;;;5.28;2.65;;;13.00;99.90;;;;;;7393016;19;20148;-78
2023/04/26 09:14:28;;;;;;;6.07;3.03;;;12.90;99.90;;;;;;7391540;19;20142;-78
2023/04/26 09:16:54;;;;;;;5.05;3.22;;;12.80;99.90;;;;;;7394055;19;20163;-79
2023/04/26 09:19:36;;;;;;;4.27;3.20;;;12.80;99.90;;;;;;7401662;19;20169;-78
2023/04/26 09:22:02;;;;;;;5.60;2.63;;;12.70;99.90;;;;;;7392275;19;20138;-79
2023/04/26 09:24:47;;;;;;;5.35;3.30;;;12.50;99.90;;;;;;7390106;19;20747;-78
2023/04/26 09:27:13;;;;;;;4.33;2.80;;;12.50;99.90;;;;;;7401933;19;20150;-78
2023/04/26 09:29:38;;;;;;;7.00;3.73;;;12.50;99.90;;;;;;7390578;19;20151;-77
2023/04/26 09:32:04;;;;;;;5.00;3.00;;;12.40;99.90;;;;;;7389247;19;20135;-80
2023/04/26 09:34:43;;;;;;;8.35;5.55;;;12.40;99.90;;;;;;7397054;19;20130;-82
2023/04/26 09:37:12;;;;;;;7.13;3.50;;;12.40;99.90;;;;;;7396068;19;20135;-79
2023/04/26 09:39:40;;;;;;;8.50;3.17;;;12.60;99.90;;;;;;7392062;19;20146;-80
2023/04/26 09:42:07;;;;;;;4.03;3.00;;;12.70;99.90;;;;;;7405911;19;20142;-79
2023/04/26 09:44:33;;;;;;;5.83;3.17;;;12.80;99.90;;;;;;7390327;19;20130;-80
2023/04/26 09:47:10;;;;;;;7.83;3.17;;;12.70;99.90;;;;;;7404090;19;20152;-79
2023/04/26 09:49:43;;;;;;;7.60;3.70;;;12.70;99.90;;;;;;7395574;19;20160;-81
2023/04/26 09:52:09;;;;;;;8.67;3.53;;;12.70;99.90;;;;;;7384484;19;20173;-80
2023/04/26 09:54:47;;;;;;;7.97;5.10;;;12.70;99.90;;;;;;7390105;19;20571;-80
2023/04/26 09:57:14;;;;;;;10.90;3.47;;;12.50;99.90;;;;;;7383638;19;20146;-78
2023/04/26 09:59:55;;;;;;;5.40;3.47;;;12.60;99.90;;;;;;7387104;19;20237;-79
2023/04/26 10:02:26;;;;;;;5.75;3.50;;;12.60;99.90;;;;;;7385906;19;20673;-79
2023/04/26 10:04:54;;;;;;;6.10;3.60;;;12.40;99.90;;;;;;7386624;19;20131;-80
2023/04/26 10:07:25;;;;;;;4.90;3.10;;;12.60;99.90;;;;;;7391249;19;20139;-80
2023/04/26 10:09:52;;;;;;;3.83;2.80;;;12.80;99.90;;;;;;7389042;19;20151;-80
2023/04/26 10:12:19;;;;;;;5.90;3.28;;;12.90;99.90;;;;;;7397379;19;20217;-79
2023/04/26 10:14:46;;;;;;;8.47;3.43;;;12.90;99.90;;;;;;7392816;19;20135;-80
2023/04/26 10:17:12;;;;;;;6.53;3.83;;;13.10;99.90;;;;;;7398048;19;20471;-80
2023/04/26 10:19:42;;;;;;;6.27;3.57;;;13.00;99.90;;;;;;7388467;19;20180;-79
2023/04/26 10:22:21;;;;;;;7.93;3.60;;;12.80;99.90;;;;;;7390941;19;20131;-78
2023/04/26 10:24:48;;;;;;;5.43;3.30;;;12.80;99.90;;;;;;7389844;19;20556;-80
2023/04/26 10:27:14;;;;;;;8.23;3.70;;;12.90;99.90;;;;;;7391689;19;20478;-79
2023/04/26 10:29:55;;;;;;;6.70;3.23;;;13.00;99.90;;;;;;7390708;19;20131;-77
2023/04/26 10:32:21;;;;;;;6.32;3.30;;;13.10;99.90;;;;;;7390580;19;20490;-78
2023/04/26 10:35:15;;;;;;;8.30;3.50;;;13.20;99.90;;;;;;7390861;19;20218;-79
2023/04/26 10:38:02;;;;;;;7.80;2.80;;;13.40;99.90;;;;;;7390316;19;20142;-78
2023/04/26 10:40:37;;;;;;;6.47;3.03;;;13.20;99.90;;;;;;7392824;19;20134;-79
2023/04/26 10:43:15;;;;;;;6.40;2.90;;;13.50;99.90;;;;;;7391267;19;20146;-80
2023/04/26 10:45:45;;;;;;;12.53;6.47;;;13.50;99.90;;;;;;7390239;19;20136;-81
2023/04/26 10:48:19;;;;;;;12.27;8.75;;;13.50;99.90;;;;;;7392954;19;20151;-78
2023/04/26 10:51:00;;;;;;;6.05;2.83;;;13.60;99.90;;;;;;7394749;19;20150;-79
2023/04/26 10:53:46;;;;;;;4.53;2.90;;;13.50;99.90;;;;;;7387184;19;20207;-79
2023/04/26 10:56:30;;;;;;;4.82;3.00;;;13.60;99.90;;;;;;7385832;19;20530;-78
2023/04/26 10:59:18;;;;;;;4.90;2.90;;;13.70;99.90;;;;;;7389438;19;20149;-78
2023/04/26 11:01:44;;;;;;;4.53;2.17;;;13.50;99.90;;;;;;7387679;19;20210;-77
2023/04/26 11:04:11;;;;;;;5.28;2.70;;;13.30;99.90;;;;;;7388545;19;20149;-78
2023/04/26 11:06:51;;;;;;;4.35;2.63;;;13.20;99.90;;;;;;7388341;19;20273;-78
2023/04/26 11:09:40;;;;;;;4.75;2.83;;;13.50;99.90;;;;;;7388972;19;20138;-79
2023/04/26 11:12:13;;;;;;;4.20;2.55;;;13.50;99.90;;;;;;7387027;19;20517;-79
2023/04/26 11:14:44;;;;;;;6.28;3.10;;;13.80;99.90;;;;;;7387530;19;20134;-79
2023/04/26 11:17:11;;;;;;;5.35;2.80;;;14.00;99.90;;;;;;7388781;19;20161;-79
2023/04/26 11:19:41;;;;;;;5.13;2.60;;;14.10;99.90;;;;;;7390175;19;20139;-78
2023/04/26 11:22:07;;;;;;;4.53;2.55;;;14.20;99.90;;;;;;7386570;19;20194;-79
2023/04/26 11:24:40;;;;;;;6.22;2.53;;;14.30;99.90;;;;;;7387864;19;20127;-77
2023/04/26 11:27:11;;;;;;;6.63;2.20;;;14.50;99.90;;;;;;7382204;19;20678;-78
2023/04/26 11:29:37;;;;;;;3.60;2.50;;;14.50;99.90;;;;;;7388280;19;20146;-79
2023/04/26 11:32:03;;;;;;;3.83;2.40;;;14.40;99.90;;;;;;7384582;19;20158;-79
2023/04/26 11:34:40;;;;;;;6.55;3.35;;;14.00;99.90;;;;;;7388362;19;20138;-80
2023/04/26 11:37:06;;;;;;;4.63;2.72;;;14.00;99.90;;;;;;7387992;19;20152;-78
2023/04/26 11:39:35;;;;;;;5.00;3.08;;;14.00;99.90;;;;;;7385700;19;20145;-79
2023/04/26 11:42:09;;;;;;;5.93;2.53;;;13.90;99.90;;;;;;7385657;19;20173;-78
2023/04/26 11:44:36;;;;;;;6.38;2.97;;;13.90;99.80;;;;;;7387367;19;20477;-79
2023/04/26 11:47:05;;;;;;;4.25;2.83;;;14.20;99.90;;;;;;7387165;19;20163;-77
2023/04/26 11:49:32;;;;;;;5.85;2.65;;;14.30;99.90;;;;;;7388582;19;20471;-78
2023/04/26 11:51:58;;;;;;;4.65;2.30;;;14.60;99.90;;;;;;7384185;19;20134;-77
2023/04/26 11:54:31;;;;;;;4.07;2.70;;;14.80;99.80;;;;;;7390107;19;20163;-79
2023/04/26 11:56:58;;;;;;;5.03;2.42;;;14.80;99.30;;;;;;7387588;19;20134;-79
2023/04/26 11:59:25;;;;;;;5.20;3.30;;;14.60;98.30;;;;;;7388793;19;20207;-79
2023/04/26 12:01:52;;;;;;;7.50;3.40;;;14.30;98.90;;;;;;7386203;19;20134;-79
2023/04/26 12:04:18;;;;;;;7.27;3.13;;;14.20;99.00;;;;;;7386815;19;20188;-79
2023/04/26 12:06:45;;;;;;;7.72;3.15;;;14.00;99.70;;;;;;7387462;19;20198;-80
2023/04/26 12:09:13;;;;;;;5.50;2.90;;;14.00;99.40;;;;;;7387767;19;20212;-79
2023/04/26 12:11:39;;;;;;;3.43;2.60;;;14.10;99.30;;;;;;7384724;19;20229;-79
2023/04/26 12:14:06;;;;;;;3.50;2.40;;;14.00;99.50;;;;;;7386245;19;20154;-78
2023/04/26 12:16:36;;;;;;;2.65;2.40;;;14.00;99.40;;;;;;7386268;19;20522;-79
2023/04/26 12:19:07;;;;;;;4.55;2.50;;;14.00;98.70;;;;;;7385360;19;20146;-79
2023/04/26 12:21:43;;;;;;;4.50;2.25;;;14.30;98.90;;;;;;7385457;19;20466;-79
2023/04/26 12:24:23;;;;;;;5.25;2.33;;;14.50;98.10;;;;;;7384608;19;20150;-77
2023/04/26 12:26:49;;;;;;;4.30;2.10;;;14.40;99.20;;;;;;7399255;19;20130;-79
2023/04/26 12:29:14;;;;;;;4.10;2.40;;;14.50;99.90;;;;;;7387847;19;20472;-80
2023/04/26 12:31:40;;;;;;;3.50;2.33;;;14.50;98.50;;;;;;7384989;19;20586;-78
2023/04/26 12:34:06;;;;;;;6.15;3.05;;;14.40;99.10;;;;;;7386021;19;20741;-79
2023/04/26 12:36:33;;;;;;;4.35;2.33;;;14.40;99.90;;;;;;7387530;19;20142;-77
2023/04/26 12:39:01;;;;;;;4.43;2.70;;;14.00;97.40;;;;;;7389719;19;20606;-77
2023/04/26 12:41:26;;;;;;;7.60;2.80;;;13.70;98.60;;;;;;7384930;19;20173;-77
2023/04/26 12:43:52;;;;;;;5.38;2.60;;;14.00;99.90;;;;;;7383639;19;20150;-79
2023/04/26 12:46:18;;;;;;;4.25;2.38;;;14.20;99.20;;;;;;7384263;19;20580;-79
2023/04/26 12:48:43;;;;;;;3.85;2.65;;;14.40;99.70;;;;;;7393880;19;20134;-78
2023/04/26 12:51:09;;;;;;;5.60;2.30;;;14.50;99.00;;;;;;7383362;19;20602;-79
2023/04/26 12:53:35;;;;;;;6.28;2.50;;;14.50;99.60;;;;;;7380270;19;20149;-78
2023/04/26 12:56:01;;;;;;;2.70;2.00;;;14.70;98.60;;;;;;7382696;19;20149;-77
2023/04/26 12:58:27;;;;;;;4.43;2.30;;;14.70;99.00;;;;;;7385116;19;20156;-78